sensor_id;sensor_type;location;lat;lon;timestamp;P1;durP1;ratioP1;P2;durP2;ratioP2
2866;SDS011;1441;48.886;8.728;2023-02-12T00:01:36;25.60;;;13.80;;
2866;SDS011;1441;48.886;8.728;2023-02-12T00:04:01;24.77;;;16.37;;
2866;SDS011;1441;48.886;8.728;2023-02-12T00:06:27;24.83;;;14.83;;
2866;SDS011;1441;48.886;8.728;2023-02-12T00:08:53;22.93;;;14.47;;
2866;SDS011;1441;48.886;8.728;2023-02-12T00:11:21;25.60;;;16.77;;
2866;SDS011;1441;48.886;8.728;2023-02-12T00:13:49;22.57;;;15.20;;
2866;SDS011;1441;48.886;8.728;2023-02-12T00:16:16;25.77;;;14.60;;
2866;SDS011;1441;48.886;8.728;2023-02-12T00:18:44;18.97;;;13.63;;
2866;SDS011;1441;48.886;8.728;2023-02-12T00:21:10;26.83;;;15.70;;
2866;SDS011;1441;48.886;8.728;2023-02-12T00:23:38;25.20;;;15.30;;
2866;SDS011;1441;48.886;8.728;2023-02-12T00:26:09;21.30;;;14.10;;
2866;SDS011;1441;48.886;8.728;2023-02-12T00:28:37;20.17;;;13.60;;
2866;SDS011;1441;48.886;8.728;2023-02-12T00:31:10;23.93;;;14.70;;
2866;SDS011;1441;48.886;8.728;2023-02-12T00:33:37;18.70;;;14.20;;
2866;SDS011;1441;48.886;8.728;2023-02-12T00:36:03;16.60;;;11.87;;
2866;SDS011;1441;48.886;8.728;2023-02-12T00:38:29;20.17;;;13.50;;
2866;SDS011;1441;48.886;8.728;2023-02-12T00:40:55;17.67;;;12.33;;
2866;SDS011;1441;48.886;8.728;2023-02-12T00:43:21;18.37;;;11.73;;
2866;SDS011;1441;48.886;8.728;2023-02-12T00:45:46;15.47;;;11.47;;
2866;SDS011;1441;48.886;8.728;2023-02-12T00:48:12;18.60;;;12.57;;
2866;SDS011;1441;48.886;8.728;2023-02-12T00:50:38;19.40;;;13.50;;
2866;SDS011;1441;48.886;8.728;2023-02-12T00:53:07;30.80;;;18.73;;
2866;SDS011;1441;48.886;8.728;2023-02-12T00:55:33;27.73;;;17.83;;
2866;SDS011;1441;48.886;8.728;2023-02-12T00:57:59;31.50;;;19.33;;
2866;SDS011;1441;48.886;8.728;2023-02-12T01:00:24;31.07;;;19.53;;
2866;SDS011;1441;48.886;8.728;2023-02-12T01:02:50;31.50;;;20.67;;
2866;SDS011;1441;48.886;8.728;2023-02-12T01:05:16;33.37;;;20.93;;
2866;SDS011;1441;48.886;8.728;2023-02-12T01:07:43;32.77;;;19.97;;
2866;SDS011;1441;48.886;8.728;2023-02-12T01:10:13;26.03;;;17.17;;
2866;SDS011;1441;48.886;8.728;2023-02-12T01:12:38;34.50;;;20.97;;
2866;SDS011;1441;48.886;8.728;2023-02-12T01:15:04;36.53;;;20.40;;
2866;SDS011;1441;48.886;8.728;2023-02-12T01:17:29;32.73;;;18.73;;
2866;SDS011;1441;48.886;8.728;2023-02-12T01:19:56;25.87;;;17.40;;
2866;SDS011;1441;48.886;8.728;2023-02-12T01:22:22;34.10;;;19.70;;
2866;SDS011;1441;48.886;8.728;2023-02-12T01:24:48;29.30;;;19.27;;
2866;SDS011;1441;48.886;8.728;2023-02-12T01:27:14;29.43;;;16.20;;
2866;SDS011;1441;48.886;8.728;2023-02-12T01:29:39;25.33;;;15.93;;
2866;SDS011;1441;48.886;8.728;2023-02-12T01:32:08;19.10;;;13.30;;
2866;SDS011;1441;48.886;8.728;2023-02-12T01:34:34;19.93;;;13.43;;
2866;SDS011;1441;48.886;8.728;2023-02-12T01:37:00;22.80;;;13.77;;
2866;SDS011;1441;48.886;8.728;2023-02-12T01:39:26;19.30;;;12.87;;
2866;SDS011;1441;48.886;8.728;2023-02-12T01:41:51;16.87;;;12.53;;
2866;SDS011;1441;48.886;8.728;2023-02-12T01:44:19;20.00;;;12.20;;
2866;SDS011;1441;48.886;8.728;2023-02-12T01:46:49;19.40;;;13.27;;
2866;SDS011;1441;48.886;8.728;2023-02-12T01:49:38;18.37;;;11.27;;
2866;SDS011;1441;48.886;8.728;2023-02-12T01:52:24;20.37;;;12.70;;
2866;SDS011;1441;48.886;8.728;2023-02-12T01:54:54;17.70;;;12.30;;
2866;SDS011;1441;48.886;8.728;2023-02-12T01:57:23;17.30;;;11.83;;
2866;SDS011;1441;48.886;8.728;2023-02-12T01:59:50;21.83;;;11.77;;
2866;SDS011;1441;48.886;8.728;2023-02-12T02:02:20;16.40;;;11.73;;
2866;SDS011;1441;48.886;8.728;2023-02-12T02:04:47;18.23;;;12.70;;
2866;SDS011;1441;48.886;8.728;2023-02-12T02:07:16;24.73;;;13.30;;
2866;SDS011;1441;48.886;8.728;2023-02-12T02:09:41;18.97;;;12.37;;
2866;SDS011;1441;48.886;8.728;2023-02-12T02:12:08;16.53;;;11.87;;
2866;SDS011;1441;48.886;8.728;2023-02-12T02:14:55;24.93;;;12.43;;
2866;SDS011;1441;48.886;8.728;2023-02-12T02:17:38;21.83;;;13.87;;
2866;SDS011;1441;48.886;8.728;2023-02-12T02:20:28;21.27;;;13.20;;
2866;SDS011;1441;48.886;8.728;2023-02-12T02:36:52;16.50;;;11.43;;
2866;SDS011;1441;48.886;8.728;2023-02-12T02:39:30;23.83;;;13.63;;
2866;SDS011;1441;48.886;8.728;2023-02-12T02:42:10;19.50;;;12.33;;
2866;SDS011;1441;48.886;8.728;2023-02-12T02:47:42;20.17;;;12.67;;
2866;SDS011;1441;48.886;8.728;2023-02-12T02:50:12;22.33;;;14.27;;
2866;SDS011;1441;48.886;8.728;2023-02-12T02:55:37;20.70;;;13.90;;
2866;SDS011;1441;48.886;8.728;2023-02-12T02:58:09;27.60;;;14.50;;
2866;SDS011;1441;48.886;8.728;2023-02-12T03:00:40;19.73;;;13.13;;
2866;SDS011;1441;48.886;8.728;2023-02-12T03:03:26;21.40;;;13.43;;
2866;SDS011;1441;48.886;8.728;2023-02-12T03:05:55;20.60;;;12.30;;
2866;SDS011;1441;48.886;8.728;2023-02-12T03:08:33;21.10;;;12.83;;
2866;SDS011;1441;48.886;8.728;2023-02-12T03:11:11;17.50;;;12.43;;
2866;SDS011;1441;48.886;8.728;2023-02-12T03:13:47;17.73;;;11.10;;
2866;SDS011;1441;48.886;8.728;2023-02-12T03:16:24;16.40;;;10.77;;
2866;SDS011;1441;48.886;8.728;2023-02-12T03:21:42;15.23;;;11.13;;
2866;SDS011;1441;48.886;8.728;2023-02-12T03:24:25;17.33;;;11.13;;
2866;SDS011;1441;48.886;8.728;2023-02-12T03:26:59;16.03;;;11.97;;
2866;SDS011;1441;48.886;8.728;2023-02-12T03:29:31;17.97;;;12.90;;
2866;SDS011;1441;48.886;8.728;2023-02-12T03:34:52;22.70;;;13.40;;
2866;SDS011;1441;48.886;8.728;2023-02-12T03:37:33;23.20;;;15.80;;
2866;SDS011;1441;48.886;8.728;2023-02-12T03:45:33;21.63;;;15.67;;
2866;SDS011;1441;48.886;8.728;2023-02-12T03:48:32;27.83;;;16.17;;
2866;SDS011;1441;48.886;8.728;2023-02-12T03:50:57;23.70;;;15.00;;
2866;SDS011;1441;48.886;8.728;2023-02-12T03:53:42;20.70;;;12.97;;
2866;SDS011;1441;48.886;8.728;2023-02-12T03:56:12;17.13;;;11.53;;
2866;SDS011;1441;48.886;8.728;2023-02-12T03:58:43;14.43;;;10.20;;
2866;SDS011;1441;48.886;8.728;2023-02-12T04:01:10;15.17;;;10.80;;
2866;SDS011;1441;48.886;8.728;2023-02-12T04:03:37;15.00;;;10.87;;
2866;SDS011;1441;48.886;8.728;2023-02-12T04:06:03;18.07;;;11.97;;
2866;SDS011;1441;48.886;8.728;2023-02-12T04:08:29;15.30;;;11.30;;
2866;SDS011;1441;48.886;8.728;2023-02-12T04:16:46;19.47;;;11.80;;
2866;SDS011;1441;48.886;8.728;2023-02-12T04:19:34;15.50;;;10.60;;
2866;SDS011;1441;48.886;8.728;2023-02-12T04:22:13;16.03;;;9.63;;
2866;SDS011;1441;48.886;8.728;2023-02-12T04:25:14;12.03;;;9.67;;
2866;SDS011;1441;48.886;8.728;2023-02-12T04:30:58;19.60;;;11.13;;
2866;SDS011;1441;48.886;8.728;2023-02-12T04:33:41;14.60;;;10.87;;
2866;SDS011;1441;48.886;8.728;2023-02-12T04:36:15;17.23;;;10.50;;
2866;SDS011;1441;48.886;8.728;2023-02-12T04:38:50;14.63;;;10.70;;
2866;SDS011;1441;48.886;8.728;2023-02-12T04:41:19;16.30;;;10.63;;
2866;SDS011;1441;48.886;8.728;2023-02-12T04:43:45;16.57;;;11.87;;
2866;SDS011;1441;48.886;8.728;2023-02-12T04:46:11;17.03;;;11.90;;
2866;SDS011;1441;48.886;8.728;2023-02-12T04:48:38;14.70;;;11.63;;
2866;SDS011;1441;48.886;8.728;2023-02-12T04:51:21;17.37;;;11.63;;
2866;SDS011;1441;48.886;8.728;2023-02-12T04:53:47;15.60;;;10.93;;
2866;SDS011;1441;48.886;8.728;2023-02-12T04:56:13;19.90;;;13.13;;
2866;SDS011;1441;48.886;8.728;2023-02-12T04:58:39;16.37;;;12.50;;
2866;SDS011;1441;48.886;8.728;2023-02-12T05:01:06;16.53;;;12.50;;
2866;SDS011;1441;48.886;8.728;2023-02-12T05:03:33;20.33;;;12.83;;
2866;SDS011;1441;48.886;8.728;2023-02-12T05:06:02;22.10;;;11.93;;
2866;SDS011;1441;48.886;8.728;2023-02-12T05:08:32;16.10;;;11.20;;
2866;SDS011;1441;48.886;8.728;2023-02-12T05:11:04;21.07;;;11.80;;
2866;SDS011;1441;48.886;8.728;2023-02-12T05:13:31;20.97;;;12.70;;
2866;SDS011;1441;48.886;8.728;2023-02-12T05:15:57;16.90;;;10.97;;
2866;SDS011;1441;48.886;8.728;2023-02-12T05:18:22;17.53;;;11.83;;
2866;SDS011;1441;48.886;8.728;2023-02-12T05:20:57;18.93;;;13.00;;
2866;SDS011;1441;48.886;8.728;2023-02-12T05:23:31;18.30;;;13.17;;
2866;SDS011;1441;48.886;8.728;2023-02-12T05:25:58;18.10;;;12.47;;
2866;SDS011;1441;48.886;8.728;2023-02-12T05:28:25;19.63;;;14.20;;
2866;SDS011;1441;48.886;8.728;2023-02-12T05:30:52;19.90;;;13.17;;
2866;SDS011;1441;48.886;8.728;2023-02-12T05:33:17;18.23;;;12.87;;
2866;SDS011;1441;48.886;8.728;2023-02-12T05:35:43;22.20;;;12.80;;
2866;SDS011;1441;48.886;8.728;2023-02-12T05:38:08;20.50;;;12.90;;
2866;SDS011;1441;48.886;8.728;2023-02-12T05:40:34;23.00;;;12.80;;
2866;SDS011;1441;48.886;8.728;2023-02-12T05:43:00;16.60;;;11.93;;
2866;SDS011;1441;48.886;8.728;2023-02-12T05:45:26;17.80;;;12.70;;
2866;SDS011;1441;48.886;8.728;2023-02-12T05:47:53;18.03;;;13.03;;
2866;SDS011;1441;48.886;8.728;2023-02-12T05:50:19;20.20;;;13.63;;
2866;SDS011;1441;48.886;8.728;2023-02-12T05:52:45;17.77;;;12.27;;
2866;SDS011;1441;48.886;8.728;2023-02-12T05:55:11;21.80;;;12.60;;
2866;SDS011;1441;48.886;8.728;2023-02-12T05:57:36;18.17;;;12.67;;
2866;SDS011;1441;48.886;8.728;2023-02-12T06:00:03;20.33;;;14.03;;
2866;SDS011;1441;48.886;8.728;2023-02-12T06:02:29;18.50;;;11.73;;
2866;SDS011;1441;48.886;8.728;2023-02-12T06:04:55;20.80;;;14.20;;
2866;SDS011;1441;48.886;8.728;2023-02-12T06:07:20;21.60;;;14.50;;
2866;SDS011;1441;48.886;8.728;2023-02-12T06:09:46;27.43;;;16.33;;
2866;SDS011;1441;48.886;8.728;2023-02-12T06:12:12;27.00;;;16.60;;
2866;SDS011;1441;48.886;8.728;2023-02-12T06:14:39;22.70;;;16.10;;
2866;SDS011;1441;48.886;8.728;2023-02-12T06:17:06;26.00;;;15.80;;
2866;SDS011;1441;48.886;8.728;2023-02-12T06:19:32;21.63;;;14.40;;
2866;SDS011;1441;48.886;8.728;2023-02-12T06:21:57;28.50;;;17.57;;
2866;SDS011;1441;48.886;8.728;2023-02-12T06:24:23;29.87;;;17.30;;
2866;SDS011;1441;48.886;8.728;2023-02-12T06:26:49;25.83;;;16.93;;
2866;SDS011;1441;48.886;8.728;2023-02-12T06:29:16;27.10;;;17.53;;
2866;SDS011;1441;48.886;8.728;2023-02-12T06:31:45;32.60;;;17.90;;
2866;SDS011;1441;48.886;8.728;2023-02-12T06:34:11;28.20;;;16.77;;
2866;SDS011;1441;48.886;8.728;2023-02-12T06:36:38;33.60;;;17.00;;
2866;SDS011;1441;48.886;8.728;2023-02-12T06:39:05;25.30;;;17.10;;
2866;SDS011;1441;48.886;8.728;2023-02-12T06:41:31;29.90;;;17.90;;
2866;SDS011;1441;48.886;8.728;2023-02-12T06:43:57;28.20;;;18.20;;
2866;SDS011;1441;48.886;8.728;2023-02-12T06:46:23;28.17;;;17.47;;
2866;SDS011;1441;48.886;8.728;2023-02-12T06:48:52;30.97;;;18.80;;
2866;SDS011;1441;48.886;8.728;2023-02-12T06:51:19;29.20;;;18.40;;
2866;SDS011;1441;48.886;8.728;2023-02-12T06:53:48;30.90;;;18.60;;
2866;SDS011;1441;48.886;8.728;2023-02-12T06:56:15;33.57;;;17.93;;
2866;SDS011;1441;48.886;8.728;2023-02-12T06:58:45;31.83;;;19.00;;
2866;SDS011;1441;48.886;8.728;2023-02-12T07:03:49;31.20;;;18.17;;
2866;SDS011;1441;48.886;8.728;2023-02-12T07:06:23;34.20;;;18.77;;
2866;SDS011;1441;48.886;8.728;2023-02-12T07:08:49;30.97;;;19.80;;
2866;SDS011;1441;48.886;8.728;2023-02-12T07:11:15;28.83;;;18.83;;
2866;SDS011;1441;48.886;8.728;2023-02-12T07:13:42;33.17;;;19.97;;
2866;SDS011;1441;48.886;8.728;2023-02-12T07:16:13;34.90;;;19.70;;
2866;SDS011;1441;48.886;8.728;2023-02-12T07:18:40;33.27;;;19.93;;
2866;SDS011;1441;48.886;8.728;2023-02-12T07:21:07;32.93;;;18.30;;
2866;SDS011;1441;48.886;8.728;2023-02-12T07:23:33;34.50;;;18.50;;
2866;SDS011;1441;48.886;8.728;2023-02-12T07:26:00;36.70;;;19.17;;
2866;SDS011;1441;48.886;8.728;2023-02-12T07:28:31;34.03;;;19.63;;
2866;SDS011;1441;48.886;8.728;2023-02-12T07:31:04;33.23;;;19.77;;
2866;SDS011;1441;48.886;8.728;2023-02-12T07:33:32;35.80;;;19.33;;
2866;SDS011;1441;48.886;8.728;2023-02-12T07:35:59;31.27;;;19.13;;
2866;SDS011;1441;48.886;8.728;2023-02-12T07:38:25;26.87;;;17.33;;
2866;SDS011;1441;48.886;8.728;2023-02-12T07:40:51;31.13;;;17.80;;
2866;SDS011;1441;48.886;8.728;2023-02-12T07:43:16;32.37;;;19.30;;
2866;SDS011;1441;48.886;8.728;2023-02-12T07:45:42;31.57;;;18.60;;
2866;SDS011;1441;48.886;8.728;2023-02-12T07:48:07;30.90;;;16.23;;
2866;SDS011;1441;48.886;8.728;2023-02-12T07:50:33;27.97;;;17.63;;
2866;SDS011;1441;48.886;8.728;2023-02-12T07:52:58;28.90;;;17.17;;
2866;SDS011;1441;48.886;8.728;2023-02-12T07:55:24;31.87;;;17.53;;
2866;SDS011;1441;48.886;8.728;2023-02-12T07:57:50;31.27;;;18.83;;
2866;SDS011;1441;48.886;8.728;2023-02-12T08:00:15;29.63;;;17.83;;
2866;SDS011;1441;48.886;8.728;2023-02-12T08:02:41;29.90;;;17.83;;
2866;SDS011;1441;48.886;8.728;2023-02-12T08:05:07;30.27;;;18.50;;
2866;SDS011;1441;48.886;8.728;2023-02-12T08:07:32;29.47;;;18.20;;
2866;SDS011;1441;48.886;8.728;2023-02-12T08:09:58;29.27;;;17.53;;
2866;SDS011;1441;48.886;8.728;2023-02-12T08:12:23;28.80;;;17.60;;
2866;SDS011;1441;48.886;8.728;2023-02-12T08:14:49;26.93;;;16.70;;
2866;SDS011;1441;48.886;8.728;2023-02-12T08:17:15;29.33;;;16.43;;
2866;SDS011;1441;48.886;8.728;2023-02-12T08:19:40;28.93;;;17.00;;
2866;SDS011;1441;48.886;8.728;2023-02-12T08:22:06;23.30;;;14.67;;
2866;SDS011;1441;48.886;8.728;2023-02-12T08:24:31;28.50;;;17.47;;
2866;SDS011;1441;48.886;8.728;2023-02-12T08:26:57;27.20;;;15.50;;
2866;SDS011;1441;48.886;8.728;2023-02-12T08:29:24;25.93;;;14.03;;
2866;SDS011;1441;48.886;8.728;2023-02-12T08:32:01;22.77;;;13.83;;
2866;SDS011;1441;48.886;8.728;2023-02-12T08:34:29;23.90;;;14.37;;
2866;SDS011;1441;48.886;8.728;2023-02-12T08:36:56;23.60;;;12.80;;
2866;SDS011;1441;48.886;8.728;2023-02-12T08:39:23;25.73;;;15.33;;
2866;SDS011;1441;48.886;8.728;2023-02-12T08:41:50;22.87;;;12.97;;
2866;SDS011;1441;48.886;8.728;2023-02-12T08:44:18;23.30;;;13.00;;
2866;SDS011;1441;48.886;8.728;2023-02-12T08:46:45;19.07;;;12.17;;
2866;SDS011;1441;48.886;8.728;2023-02-12T08:49:16;21.23;;;12.70;;
2866;SDS011;1441;48.886;8.728;2023-02-12T08:51:44;17.40;;;11.03;;
2866;SDS011;1441;48.886;8.728;2023-02-12T08:54:13;25.20;;;13.87;;
2866;SDS011;1441;48.886;8.728;2023-02-12T08:56:41;24.93;;;13.60;;
2866;SDS011;1441;48.886;8.728;2023-02-12T08:59:09;22.63;;;13.33;;
2866;SDS011;1441;48.886;8.728;2023-02-12T09:01:36;24.43;;;13.60;;
2866;SDS011;1441;48.886;8.728;2023-02-12T09:04:05;24.80;;;14.40;;
2866;SDS011;1441;48.886;8.728;2023-02-12T09:06:31;24.60;;;13.60;;
2866;SDS011;1441;48.886;8.728;2023-02-12T09:08:58;23.53;;;13.80;;
2866;SDS011;1441;48.886;8.728;2023-02-12T09:11:25;21.40;;;12.83;;
2866;SDS011;1441;48.886;8.728;2023-02-12T09:13:55;28.30;;;14.43;;
2866;SDS011;1441;48.886;8.728;2023-02-12T09:16:23;21.63;;;12.43;;
2866;SDS011;1441;48.886;8.728;2023-02-12T09:18:49;23.00;;;14.10;;
2866;SDS011;1441;48.886;8.728;2023-02-12T09:21:15;21.93;;;12.63;;
2866;SDS011;1441;48.886;8.728;2023-02-12T09:23:41;21.07;;;12.70;;
2866;SDS011;1441;48.886;8.728;2023-02-12T09:26:09;23.03;;;14.20;;
2866;SDS011;1441;48.886;8.728;2023-02-12T09:28:36;22.27;;;13.90;;
2866;SDS011;1441;48.886;8.728;2023-02-12T09:31:13;22.50;;;14.30;;
2866;SDS011;1441;48.886;8.728;2023-02-12T09:33:42;17.23;;;11.07;;
2866;SDS011;1441;48.886;8.728;2023-02-12T09:36:09;20.23;;;13.47;;
2866;SDS011;1441;48.886;8.728;2023-02-12T09:38:37;14.50;;;10.10;;
2866;SDS011;1441;48.886;8.728;2023-02-12T09:52:20;20.50;;;10.33;;
2866;SDS011;1441;48.886;8.728;2023-02-12T09:54:49;22.83;;;12.37;;
2866;SDS011;1441;48.886;8.728;2023-02-12T09:57:19;14.97;;;8.50;;
2866;SDS011;1441;48.886;8.728;2023-02-12T09:59:56;18.63;;;10.50;;
2866;SDS011;1441;48.886;8.728;2023-02-12T10:02:29;10.77;;;7.07;;
2866;SDS011;1441;48.886;8.728;2023-02-12T10:04:54;8.30;;;6.03;;
2866;SDS011;1441;48.886;8.728;2023-02-12T10:07:25;7.97;;;5.60;;
2866;SDS011;1441;48.886;8.728;2023-02-12T10:12:49;6.50;;;4.60;;
2866;SDS011;1441;48.886;8.728;2023-02-12T10:15:39;6.30;;;5.10;;
2866;SDS011;1441;48.886;8.728;2023-02-12T10:24:19;9.30;;;5.50;;
2866;SDS011;1441;48.886;8.728;2023-02-12T10:26:48;9.27;;;6.20;;
2866;SDS011;1441;48.886;8.728;2023-02-12T10:29:19;11.13;;;5.30;;
2866;SDS011;1441;48.886;8.728;2023-02-12T10:31:58;7.90;;;6.60;;
2866;SDS011;1441;48.886;8.728;2023-02-12T10:34:32;10.87;;;7.50;;
2866;SDS011;1441;48.886;8.728;2023-02-12T10:37:11;9.33;;;6.97;;
2866;SDS011;1441;48.886;8.728;2023-02-12T10:39:49;7.80;;;5.77;;
2866;SDS011;1441;48.886;8.728;2023-02-12T10:45:04;10.50;;;7.23;;
2866;SDS011;1441;48.886;8.728;2023-02-12T10:47:36;7.93;;;5.93;;
2866;SDS011;1441;48.886;8.728;2023-02-12T10:50:02;12.50;;;7.13;;
2866;SDS011;1441;48.886;8.728;2023-02-12T10:53:00;6.50;;;5.30;;
2866;SDS011;1441;48.886;8.728;2023-02-12T10:55:28;9.30;;;6.60;;
2866;SDS011;1441;48.886;8.728;2023-02-12T10:57:56;10.80;;;7.90;;
2866;SDS011;1441;48.886;8.728;2023-02-12T11:00:25;14.80;;;7.80;;
2866;SDS011;1441;48.886;8.728;2023-02-12T11:03:32;10.80;;;7.67;;
2866;SDS011;1441;48.886;8.728;2023-02-12T11:05:52;13.83;;;8.40;;
2866;SDS011;1441;48.886;8.728;2023-02-12T11:08:28;9.30;;;6.70;;
2866;SDS011;1441;48.886;8.728;2023-02-12T11:11:19;11.73;;;9.10;;
2866;SDS011;1441;48.886;8.728;2023-02-12T11:13:54;8.93;;;5.90;;
2866;SDS011;1441;48.886;8.728;2023-02-12T11:16:29;7.03;;;4.90;;
2866;SDS011;1441;48.886;8.728;2023-02-12T11:18:58;5.93;;;4.80;;
2866;SDS011;1441;48.886;8.728;2023-02-12T11:21:25;5.37;;;4.70;;
2866;SDS011;1441;48.886;8.728;2023-02-12T11:23:51;8.33;;;6.27;;
2866;SDS011;1441;48.886;8.728;2023-02-12T11:28:55;9.50;;;6.47;;
2866;SDS011;1441;48.886;8.728;2023-02-12T11:31:40;8.57;;;6.60;;
2866;SDS011;1441;48.886;8.728;2023-02-12T11:34:16;8.90;;;6.70;;
2866;SDS011;1441;48.886;8.728;2023-02-12T11:36:49;8.83;;;7.10;;
2866;SDS011;1441;48.886;8.728;2023-02-12T11:39:23;9.47;;;7.20;;
2866;SDS011;1441;48.886;8.728;2023-02-12T11:41:58;10.37;;;7.30;;
2866;SDS011;1441;48.886;8.728;2023-02-12T11:44:25;9.60;;;6.93;;
2866;SDS011;1441;48.886;8.728;2023-02-12T11:46:58;9.90;;;7.00;;
2866;SDS011;1441;48.886;8.728;2023-02-12T11:52:20;11.60;;;9.10;;
2866;SDS011;1441;48.886;8.728;2023-02-12T11:54:51;13.53;;;9.27;;
2866;SDS011;1441;48.886;8.728;2023-02-12T12:05:37;12.30;;;8.60;;
2866;SDS011;1441;48.886;8.728;2023-02-12T12:08:20;16.73;;;9.10;;
2866;SDS011;1441;48.886;8.728;2023-02-12T12:10:56;15.63;;;8.67;;
2866;SDS011;1441;48.886;8.728;2023-02-12T12:13:31;13.57;;;9.90;;
2866;SDS011;1441;48.886;8.728;2023-02-12T12:16:04;15.57;;;9.60;;
2866;SDS011;1441;48.886;8.728;2023-02-12T12:18:55;11.20;;;7.20;;
2866;SDS011;1441;48.886;8.728;2023-02-12T12:21:57;15.30;;;8.90;;
2866;SDS011;1441;48.886;8.728;2023-02-12T12:24:42;17.40;;;11.40;;
2866;SDS011;1441;48.886;8.728;2023-02-12T12:27:19;10.30;;;7.37;;
2866;SDS011;1441;48.886;8.728;2023-02-12T12:30:15;12.10;;;8.07;;
2866;SDS011;1441;48.886;8.728;2023-02-12T12:32:53;10.20;;;7.50;;
2866;SDS011;1441;48.886;8.728;2023-02-12T12:35:25;20.80;;;9.97;;
2866;SDS011;1441;48.886;8.728;2023-02-12T12:38:06;15.90;;;10.10;;
2866;SDS011;1441;48.886;8.728;2023-02-12T12:46:08;19.13;;;10.30;;
2866;SDS011;1441;48.886;8.728;2023-02-12T12:57:01;12.30;;;9.57;;
2866;SDS011;1441;48.886;8.728;2023-02-12T13:08:11;14.07;;;9.40;;
2866;SDS011;1441;48.886;8.728;2023-02-12T13:18:46;14.00;;;9.80;;
2866;SDS011;1441;48.886;8.728;2023-02-12T13:21:38;11.60;;;9.37;;
2866;SDS011;1441;48.886;8.728;2023-02-12T13:24:20;13.57;;;9.23;;
2866;SDS011;1441;48.886;8.728;2023-02-12T13:26:53;12.23;;;8.90;;
2866;SDS011;1441;48.886;8.728;2023-02-12T13:29:25;11.77;;;8.87;;
2866;SDS011;1441;48.886;8.728;2023-02-12T13:34:49;12.07;;;8.77;;
2866;SDS011;1441;48.886;8.728;2023-02-12T13:37:17;10.53;;;7.40;;
2866;SDS011;1441;48.886;8.728;2023-02-12T13:40:05;10.57;;;7.80;;
2866;SDS011;1441;48.886;8.728;2023-02-12T13:42:46;8.80;;;6.40;;
2866;SDS011;1441;48.886;8.728;2023-02-12T13:56:46;6.17;;;4.33;;
2866;SDS011;1441;48.886;8.728;2023-02-12T14:02:42;5.30;;;4.70;;
2866;SDS011;1441;48.886;8.728;2023-02-12T14:04:43;4.80;;;4.30;;
2866;SDS011;1441;48.886;8.728;2023-02-12T14:07:11;3.63;;;3.33;;
2866;SDS011;1441;48.886;8.728;2023-02-12T14:14:40;3.60;;;3.30;;
2866;SDS011;1441;48.886;8.728;2023-02-12T14:24:53;4.83;;;3.80;;
2866;SDS011;1441;48.886;8.728;2023-02-12T14:27:21;5.43;;;4.50;;
2866;SDS011;1441;48.886;8.728;2023-02-12T14:38:00;4.90;;;4.20;;
2866;SDS011;1441;48.886;8.728;2023-02-12T14:48:54;3.30;;;3.00;;
2866;SDS011;1441;48.886;8.728;2023-02-12T14:51:34;3.60;;;3.30;;
2866;SDS011;1441;48.886;8.728;2023-02-12T14:54:12;4.10;;;3.70;;
2866;SDS011;1441;48.886;8.728;2023-02-12T14:56:47;4.67;;;4.27;;
2866;SDS011;1441;48.886;8.728;2023-02-12T14:59:20;3.73;;;3.43;;
2866;SDS011;1441;48.886;8.728;2023-02-12T15:01:48;3.47;;;3.17;;
2866;SDS011;1441;48.886;8.728;2023-02-12T15:04:24;5.77;;;3.97;;
2866;SDS011;1441;48.886;8.728;2023-02-12T15:07:00;5.20;;;4.60;;
2866;SDS011;1441;48.886;8.728;2023-02-12T15:17:58;7.27;;;3.97;;
2866;SDS011;1441;48.886;8.728;2023-02-12T15:20:33;5.93;;;4.53;;
2866;SDS011;1441;48.886;8.728;2023-02-12T15:26:00;5.13;;;3.67;;
2866;SDS011;1441;48.886;8.728;2023-02-12T15:28:31;6.10;;;4.37;;
2866;SDS011;1441;48.886;8.728;2023-02-12T15:31:00;5.10;;;3.70;;
2866;SDS011;1441;48.886;8.728;2023-02-12T15:33:31;5.10;;;3.87;;
2866;SDS011;1441;48.886;8.728;2023-02-12T15:35:59;3.43;;;3.13;;
2866;SDS011;1441;48.886;8.728;2023-02-12T15:38:34;4.27;;;3.60;;
2866;SDS011;1441;48.886;8.728;2023-02-12T15:41:08;6.60;;;4.27;;
2866;SDS011;1441;48.886;8.728;2023-02-12T15:43:47;3.80;;;3.50;;
2866;SDS011;1441;48.886;8.728;2023-02-12T15:46:16;4.50;;;3.97;;
2866;SDS011;1441;48.886;8.728;2023-02-12T15:48:43;4.53;;;3.37;;
2866;SDS011;1441;48.886;8.728;2023-02-12T15:53:44;4.10;;;3.70;;
2866;SDS011;1441;48.886;8.728;2023-02-12T15:56:14;5.50;;;4.57;;
2866;SDS011;1441;48.886;8.728;2023-02-12T15:58:52;9.23;;;6.37;;
2866;SDS011;1441;48.886;8.728;2023-02-12T16:01:29;7.80;;;4.23;;
2866;SDS011;1441;48.886;8.728;2023-02-12T16:03:58;5.40;;;4.30;;
2866;SDS011;1441;48.886;8.728;2023-02-12T16:06:26;8.03;;;4.33;;
2866;SDS011;1441;48.886;8.728;2023-02-12T16:09:15;4.40;;;4.00;;
2866;SDS011;1441;48.886;8.728;2023-02-12T16:11:43;4.30;;;3.60;;
2866;SDS011;1441;48.886;8.728;2023-02-12T16:14:24;7.63;;;4.10;;
2866;SDS011;1441;48.886;8.728;2023-02-12T16:16:53;4.63;;;3.87;;
2866;SDS011;1441;48.886;8.728;2023-02-12T16:19:25;4.63;;;4.23;;
2866;SDS011;1441;48.886;8.728;2023-02-12T16:21:58;6.03;;;3.63;;
2866;SDS011;1441;48.886;8.728;2023-02-12T16:24:32;4.00;;;3.70;;
2866;SDS011;1441;48.886;8.728;2023-02-12T16:27:03;3.90;;;3.37;;
2866;SDS011;1441;48.886;8.728;2023-02-12T16:29:34;3.27;;;3.00;;
2866;SDS011;1441;48.886;8.728;2023-02-12T16:32:02;4.83;;;3.50;;
2866;SDS011;1441;48.886;8.728;2023-02-12T16:34:30;3.33;;;3.03;;
2866;SDS011;1441;48.886;8.728;2023-02-12T16:36:56;3.73;;;3.00;;
2866;SDS011;1441;48.886;8.728;2023-02-12T16:40:05;4.37;;;3.20;;
2866;SDS011;1441;48.886;8.728;2023-02-12T16:42:30;5.80;;;2.53;;
2866;SDS011;1441;48.886;8.728;2023-02-12T16:44:56;3.17;;;2.87;;
2866;SDS011;1441;48.886;8.728;2023-02-12T16:47:22;3.60;;;2.87;;
2866;SDS011;1441;48.886;8.728;2023-02-12T16:49:58;2.20;;;2.10;;
2866;SDS011;1441;48.886;8.728;2023-02-12T16:52:38;3.30;;;3.00;;
2866;SDS011;1441;48.886;8.728;2023-02-12T16:55:10;3.30;;;3.00;;
2866;SDS011;1441;48.886;8.728;2023-02-12T16:57:38;3.30;;;2.93;;
2866;SDS011;1441;48.886;8.728;2023-02-12T17:00:05;5.33;;;2.40;;
2866;SDS011;1441;48.886;8.728;2023-02-12T17:02:32;2.63;;;2.43;;
2866;SDS011;1441;48.886;8.728;2023-02-12T17:05:00;2.80;;;2.60;;
2866;SDS011;1441;48.886;8.728;2023-02-12T17:07:29;2.70;;;2.50;;
2866;SDS011;1441;48.886;8.728;2023-02-12T17:09:55;3.00;;;2.70;;
2866;SDS011;1441;48.886;8.728;2023-02-12T17:12:21;2.50;;;2.30;;
2866;SDS011;1441;48.886;8.728;2023-02-12T17:14:47;3.87;;;2.60;;
2866;SDS011;1441;48.886;8.728;2023-02-12T17:17:12;3.07;;;2.70;;
2866;SDS011;1441;48.886;8.728;2023-02-12T17:19:38;3.33;;;3.03;;
2866;SDS011;1441;48.886;8.728;2023-02-12T17:22:04;4.30;;;2.70;;
2866;SDS011;1441;48.886;8.728;2023-02-12T17:24:33;2.77;;;2.57;;
2866;SDS011;1441;48.886;8.728;2023-02-12T17:26:59;2.40;;;2.20;;
2866;SDS011;1441;48.886;8.728;2023-02-12T17:29:26;2.20;;;2.00;;
2866;SDS011;1441;48.886;8.728;2023-02-12T17:31:52;2.93;;;2.67;;
2866;SDS011;1441;48.886;8.728;2023-02-12T17:34:19;2.10;;;1.90;;
2866;SDS011;1441;48.886;8.728;2023-02-12T17:36:45;3.37;;;2.50;;
2866;SDS011;1441;48.886;8.728;2023-02-12T17:39:11;3.13;;;2.47;;
2866;SDS011;1441;48.886;8.728;2023-02-12T17:41:39;3.13;;;2.63;;
2866;SDS011;1441;48.886;8.728;2023-02-12T17:44:05;2.87;;;2.60;;
2866;SDS011;1441;48.886;8.728;2023-02-12T17:46:31;2.33;;;2.17;;
2866;SDS011;1441;48.886;8.728;2023-02-12T17:48:57;2.27;;;2.17;;
2866;SDS011;1441;48.886;8.728;2023-02-12T17:51:23;2.13;;;2.03;;
2866;SDS011;1441;48.886;8.728;2023-02-12T17:53:49;2.20;;;1.97;;
2866;SDS011;1441;48.886;8.728;2023-02-12T17:56:16;1.70;;;1.60;;
2866;SDS011;1441;48.886;8.728;2023-02-12T17:58:43;2.07;;;1.90;;
2866;SDS011;1441;48.886;8.728;2023-02-12T18:01:11;2.60;;;2.40;;
2866;SDS011;1441;48.886;8.728;2023-02-12T18:03:39;5.30;;;2.33;;
2866;SDS011;1441;48.886;8.728;2023-02-12T18:06:05;1.97;;;1.87;;
2866;SDS011;1441;48.886;8.728;2023-02-12T18:08:32;2.67;;;2.47;;